AirNav   Air Wisconsin Up To $57,000 Bonus
 
 783 users online  

16KY UCMC Air Care Walton Heliport
Walton, Kentucky, USA

GOING TO WALTON?


FAA INFORMATION EFFECTIVE 05 NOVEMBER 2020

Location

FAA Identifier: 16KY
Lat/Long: 38-51-10.7000N 084-36-59.7000W
38-51.178333N 084-36.995000W
38.8529722,-84.6165833
(estimated)
Elevation: 850 ft. / 259 m (estimated)
From city: 1 mile SW of WALTON, KY
Time zone: UTC -5 (UTC -4 during Daylight Saving Time)
Zip code: 41094

Heliport Operations

Heliport use: Private use. Permission required prior to landing
Activation date: 06/2019
Control tower: no
ARTCC: INDIANAPOLIS CENTER
FSS: TERRE HAUTE FLIGHT SERVICE STATION
Attendance: 
Wind indicator: lighted
Segmented circle: yes
Lights: SS-SR

Heliport Communications

WX ASOS at CVG (12 nm N): PHONE 859-767-8210
WX AWOS-3 at K62 (14 nm SE): 123.825 (859-654-1345)
WX ASOS at LUK (18 nm NE): PHONE 513-321-6291

Nearby radio navigation aids

VOR radial/distance  VOR name  Freq  Var
CVGr162/10.6CINCINNATI VORTAC117.3004W
FLMr314/18.8FALMOUTH VOR/DME117.0004W

 
NDB name  Hdg/Dist  Freq  Var  ID
SPORTYS238/23.024504WPWF .--. .-- ..-.
HOOK FIELD195/39.523904WHKF .... -.- ..-.

Heliport Services

Runway Information

Helipad H1

Dimensions: 36 x 36 ft. / 11 x 11 m
Surface: concrete
Runway edge lights: non-standard
FATO LGTS DO NOT FULLY SURROUND LDG AREA.
Latitude: 38-51.178333N
Longitude: 084-36.995000W
Elevation: 850.0 ft.
Traffic pattern: leftleft
Markings: basic, in good condition

Heliport Ownership and Management from official FAA records

Ownership: Privately-owned
Owner: AIR CARE AND MOBILE CARE OF CINCINN
3200 BURNET AV.
CINCINNATI, OH 45229
Phone 513-584-7522
Manager: RUDA JENKINS
3200 BURNET AV.
CINCINNATI, OH 45229
Phone 513-585-5005

Heliport Operational Statistics

Aircraft based on the field: 1
Helicopters: 1
    

Additional Remarks

TLOF 36 FT DIAM; FATO 64 FT DIAM.

Instrument Procedures

There are no published instrument procedures at 16KY.

Some nearby airports with instrument procedures:

KCVG - Cincinnati/Northern Kentucky International Airport (12 nm N)
K62 - Gene Snyder Airport (14 nm SE)
KLUK - Cincinnati Municipal Airport-Lunken Field (18 nm NE)
I69 - Clermont County Airport (23 nm NE)
I67 - Cincinnati West Airport (25 nm N)
 
Loc | Ops | Rwys | IFR | FBO | Links
Com | Nav | Svcs | Stats | Notes
Aerial photo
No photo
 
Airport distance calculator
Flying to UCMC Air Care Walton Heliport? Find the distance to fly.

From to 16KY

Sunrise and sunset
Times for 30-Nov-2020
 Local
(UTC-5)
 Zulu
(UTC)
Morning civil twilight07:1012:10
Sunrise07:3912:39
Sunset17:1622:16
Evening civil twilight17:4622:46

Current date and time
Zulu (UTC)  30-Nov-2020 13:23:02
Local (UTC-5)  30-Nov-2020 08:23:02
 
METAR
KCVG 
12nm N 
301252Z 32011KT 5SM RA BR BKN006 OVC012 02/01 A2970 RMK AO2 SLP057 P0006 T00220006
KK62 
14nm SE 
301255Z AUTO 30006KT 1SM -SN OVC002 00/00 A2968 RMK AO2 P0003
KLUK 
18nm NE 
301253Z 33006KT 5SM RA BR BKN010 OVC021 02/01 A2972 RMK AO2 SLP065 P0008 T00220011 $
KI69 
23nm NE 
301255Z AUTO 31005KT 3SM -SN OVC003 01/00 A2969 RMK AO2 P0004 T00060002
TAF
KCVG 
12nm N 
301146Z 3012/0118 35012KT 3SM -RA BR OVC008 FM301300 33014G22KT 2SM -RASN OVC008 FM301500 32015G22KT 2SM -SN BR OVC008 FM010000 30014G22KT 3SM -SN BR OVC009 FM010900 28012G20KT P6SM -SN OVC018 FM011200 27013G22KT P6SM BKN022
KLUK 
18nm NE 
301146Z 3012/0112 34010KT 3SM -RA BR OVC012 FM301400 33014G22KT 2SM -RASN OVC009 FM301600 32015G22KT 2SM -SN BR OVC009 FM010000 30014G22KT 3SM -SN BR OVC012 FM010900 28012G20KT P6SM -SN OVC022
NOTAMs
Click for the latest NOTAMs
NOTAMs are issued by the DoD/FAA and will open in a separate window not controlled by AirNav.

 

 
 

Would you like to see your business listed on this page?

 If your business provides an interesting product or service to pilots, flight crews, aircraft, or users of the UCMC Air Care Walton Heliport, you should consider listing it here.  To start the listing process, click on the button below
 
Add a business
 

Other Pages about UCMC Air Care Walton Heliport

Update a link
 
Copyright © AirNav, LLC. All rights reserved. Privacy Policy  Contact